Oceanside, Washington
Current Conditions -  °F | °C
As of 6:55 PM on Monday 20 Oct 2014 (Local Time) from KAST Reporting Station
Few Clouds Few Clouds  
Wind Chill: 14°   Ceiling: Unl
Heat Index: 14°   Visibility: 10mi
Dew Point: 11°   Wind: 10mph
Humidity: 81%   Direction: 180°S
Pressure: 29.76"   Gusts: 20mph
Location:  46.3832°N, 124.042°W
Report Text: KAST 210155Z AUTO 18009G17KT 10SM FEW037 14/11 A2976 RMK AO2 SLP077 T01440111
Loading
Personal Weather Stations






























Interactive Weather Map
Tropical Storm Tracking
New forecast layout! Learn more

10-Day Weather Forecast

Advertisements
Track Severe Weather on mobile